createdAt,value
2017-09-25T00:03:37.000Z,62.2
2017-09-25T00:13:37.000Z,62.3
2017-09-25T00:23:37.000Z,62
2017-09-25T00:33:37.000Z,61.7
2017-09-25T00:43:37.000Z,61.3
2017-09-25T00:53:37.000Z,61.2
2017-09-25T01:03:37.000Z,61.2
2017-09-25T01:13:37.000Z,61.3
2017-09-25T01:23:37.000Z,61.8
2017-09-25T01:33:37.000Z,61.6
2017-09-25T01:43:37.000Z,61
2017-09-25T01:53:37.000Z,60.9
2017-09-25T02:03:37.000Z,60.7
2017-09-25T02:13:38.000Z,60.5
2017-09-25T02:23:38.000Z,60.5
2017-09-25T02:33:38.000Z,60.5
2017-09-25T02:43:38.000Z,60.3
2017-09-25T02:53:38.000Z,60.5
2017-09-25T03:03:38.000Z,60.2
2017-09-25T03:13:38.000Z,60.3
2017-09-25T03:23:38.000Z,60.4
2017-09-25T03:33:38.000Z,60.4
2017-09-25T03:43:38.000Z,60.7
2017-09-25T03:53:38.000Z,60.7
2017-09-25T04:03:38.000Z,60.5
2017-09-25T04:13:38.000Z,60.3
2017-09-25T04:23:39.000Z,60.2
2017-09-25T04:33:38.000Z,60.2
2017-09-25T04:43:38.000Z,60.2
2017-09-25T04:53:38.000Z,60.5
2017-09-25T05:03:38.000Z,60.1
2017-09-25T05:13:38.000Z,59.9
2017-09-25T05:23:38.000Z,59.9
2017-09-25T05:33:38.000Z,59.7
2017-09-25T05:43:38.000Z,60.6
2017-09-25T05:53:38.000Z,59.9
2017-09-25T06:03:38.000Z,59.9
2017-09-25T06:13:38.000Z,59.8
2017-09-25T06:23:38.000Z,59.9
2017-09-25T06:33:38.000Z,59.6
2017-09-25T06:43:38.000Z,60.3
2017-09-25T06:53:38.000Z,59.8
2017-09-25T07:03:38.000Z,61.5
2017-09-25T07:13:38.000Z,60.4
2017-09-25T07:23:38.000Z,59.7
2017-09-25T07:33:38.000Z,61
2017-09-25T07:43:38.000Z,60.8
2017-09-25T07:53:38.000Z,60.1
2017-09-25T08:03:38.000Z,59.7
2017-09-25T08:13:38.000Z,60.6
2017-09-25T08:23:38.000Z,61.7
2017-09-25T08:33:38.000Z,62.3
2017-09-25T08:43:39.000Z,62.6
2017-09-25T08:53:39.000Z,62.7
2017-09-25T09:03:39.000Z,62.8
2017-09-25T09:13:39.000Z,62.9
2017-09-25T09:23:39.000Z,63
2017-09-25T09:33:39.000Z,63.1
2017-09-25T09:43:39.000Z,63.2
2017-09-25T09:53:39.000Z,64
2017-09-25T10:03:39.000Z,63.9
2017-09-25T10:13:39.000Z,64
2017-09-25T10:23:39.000Z,64.5
2017-09-25T10:33:39.000Z,65.1
2017-09-25T10:43:39.000Z,65.4
2017-09-25T10:53:39.000Z,65.6
2017-09-25T11:03:39.000Z,65.4
2017-09-25T11:13:39.000Z,66
2017-09-25T11:23:39.000Z,65.9
2017-09-25T11:33:39.000Z,66.8
2017-09-25T11:43:39.000Z,66.4
2017-09-25T11:53:39.000Z,65.7
2017-09-25T12:03:39.000Z,65.3
2017-09-25T12:13:39.000Z,64.6
2017-09-25T12:23:39.000Z,63.9
2017-09-25T12:33:39.000Z,63.7
2017-09-25T12:43:39.000Z,63.7
2017-09-25T12:53:39.000Z,63.1
2017-09-25T13:03:39.000Z,63.7
2017-09-25T13:13:39.000Z,64.1
2017-09-25T13:23:39.000Z,64.4
2017-09-25T13:33:39.000Z,65.3
2017-09-25T13:43:39.000Z,65.3
2017-09-25T13:53:39.000Z,66.7
2017-09-25T14:03:39.000Z,66.7
2017-09-25T14:13:39.000Z,64.2
2017-09-25T14:23:39.000Z,64.7
2017-09-25T14:33:39.000Z,63
2017-09-25T14:43:39.000Z,63.2
2017-09-25T14:53:39.000Z,62.5
2017-09-25T15:03:39.000Z,62.3
2017-09-25T15:13:39.000Z,63.6
2017-09-25T15:23:40.000Z,61.8
2017-09-25T15:33:40.000Z,62.9
2017-09-25T15:43:40.000Z,62.6
2017-09-25T15:53:40.000Z,61.5
2017-09-25T16:03:40.000Z,62.5
2017-09-25T16:13:40.000Z,62.1
2017-09-25T16:23:40.000Z,62
2017-09-25T16:33:40.000Z,61.8
2017-09-25T16:43:40.000Z,62.7
2017-09-25T16:53:40.000Z,62.6
2017-09-25T17:03:40.000Z,62.8
2017-09-25T17:13:40.000Z,65.2
2017-09-25T17:23:40.000Z,65.7
2017-09-25T17:33:40.000Z,66.8
2017-09-25T17:43:40.000Z,67.8
2017-09-25T17:53:40.000Z,68.6
2017-09-25T18:03:40.000Z,69.5
2017-09-25T18:13:42.000Z,70.1
2017-09-25T18:33:40.000Z,69.6
2017-09-25T18:43:40.000Z,68.2
2017-09-25T18:53:40.000Z,68
2017-09-25T19:03:41.000Z,68.2
2017-09-25T19:13:40.000Z,66.3
2017-09-25T19:23:40.000Z,66.3
2017-09-25T19:33:40.000Z,66
2017-09-25T19:43:40.000Z,65.8
2017-09-25T19:53:40.000Z,64.8
2017-09-25T20:03:40.000Z,64.2
2017-09-25T20:13:40.000Z,63.4
2017-09-25T20:23:40.000Z,63.3
2017-09-25T20:33:40.000Z,62.8
2017-09-25T20:43:40.000Z,62.9
2017-09-25T20:53:40.000Z,62.9
2017-09-25T21:03:40.000Z,58.5
2017-09-25T21:13:41.000Z,57.8
2017-09-25T21:23:40.000Z,57.3
2017-09-25T21:33:40.000Z,57.5
2017-09-25T21:43:40.000Z,57.1
2017-09-25T21:53:40.000Z,57.2
2017-09-25T22:03:41.000Z,57.3
2017-09-25T22:13:41.000Z,57.4
2017-09-25T22:23:41.000Z,57.5
2017-09-25T22:33:41.000Z,57.3
2017-09-25T22:43:41.000Z,57.1
2017-09-25T22:53:41.000Z,56.9
2017-09-25T23:03:41.000Z,57.1
2017-09-25T23:13:41.000Z,57.3
2017-09-25T23:23:41.000Z,57.6
2017-09-25T23:33:41.000Z,57.1
2017-09-25T23:43:41.000Z,56.7
2017-09-25T23:53:41.000Z,57.2
